Time;durP1;ratioP1;P1;durP2;ratioP2;P2;SDS_P1;SDS_P2;PMS_P1;PMS_P2;Temp;Humidity;BMP_temperature;BMP_pressure;BME280_temperature;BME280_humidity;BME280_pressure;Samples;Min_cycle;Max_cycle;Signal;HPM_P1;HPM_P2
2022/06/15 00:01:28;;;;;;;48.45;45.85;;;;;;;25.12;34.15;101818.66;5065326;28;20087;-69
2022/06/15 00:03:54;;;;;;;48.33;45.47;;;;;;;25.09;34.39;101812.97;5067965;28;20074;-70
2022/06/15 00:06:25;;;;;;;49.20;46.70;;;;;;;25.04;34.26;101802.84;5060873;28;20037;-70
2022/06/15 00:08:54;;;;;;;44.92;42.47;;;;;;;25.01;34.33;101803.47;5073257;28;20112;-70
2022/06/15 00:11:21;;;;;;;49.17;46.78;;;;;;;24.98;33.95;101809.66;5071705;28;20052;-70
2022/06/15 00:13:48;;;;;;;45.45;43.17;;;;;;;24.94;34.43;101814.97;5072860;28;20078;-70
2022/06/15 00:16:15;;;;;;;46.55;43.72;;;;;;;24.90;34.54;101808.47;5065815;28;20457;-71
2022/06/15 00:18:41;;;;;;;45.15;42.85;;;;;;;24.88;34.45;101807.94;5072832;28;20040;-70
2022/06/15 00:21:07;;;;;;;45.58;43.13;;;;;;;24.85;34.18;101800.28;5073197;28;20028;-71
2022/06/15 00:23:35;;;;;;;46.20;43.88;;;;;;;24.82;34.70;101803.66;5071261;28;20113;-70
2022/06/15 00:26:01;;;;;;;47.42;45.03;;;;;;;24.76;34.86;101800.22;5068721;28;20053;-70
2022/06/15 00:28:26;;;;;;;46.60;44.20;;;;;;;24.73;34.37;101805.56;5072964;28;20115;-70
2022/06/15 00:30:53;;;;;;;47.13;44.67;;;;;;;24.71;34.70;101805.06;5066047;28;20043;-70
2022/06/15 00:33:21;;;;;;;45.03;42.72;;;;;;;24.67;34.62;101799.34;5059456;28;20032;-71
2022/06/15 00:35:58;;;;;;;45.08;42.65;;;;;;;24.64;34.41;101804.66;5072365;28;20052;-70
2022/06/15 00:38:35;;;;;;;43.93;41.43;;;;;;;24.59;34.75;101798.16;5054312;28;20112;-71
2022/06/15 00:41:03;;;;;;;46.60;43.97;;;;;;;24.56;34.69;101795.19;5071560;28;20294;-71
2022/06/15 00:43:39;;;;;;;45.58;43.17;;;;;;;24.53;34.57;101784.75;5064618;28;20033;-70
2022/06/15 00:46:21;;;;;;;45.10;42.55;;;;;;;24.49;35.02;101787.31;5072645;28;20059;-71
2022/06/15 00:48:50;;;;;;;45.35;43.05;;;;;;;24.46;35.04;101781.59;5067582;28;20087;-70
2022/06/15 00:51:16;;;;;;;44.15;41.78;;;;;;;24.41;35.17;101779.75;5069971;28;20107;-71
2022/06/15 00:53:43;;;;;;;44.75;42.30;;;;;;;24.37;34.75;101770.47;5052341;28;20465;-70
2022/06/15 00:56:10;;;;;;;44.13;41.92;;;;;;;24.34;34.75;101777.44;5072535;28;20090;-72
2022/06/15 00:58:38;;;;;;;44.60;42.00;;;;;;;24.31;35.28;101774.44;5067663;28;20055;-72
2022/06/15 01:01:05;;;;;;;43.38;40.88;;;;;;;24.28;34.97;101781.41;5067458;28;20028;-72
2022/06/15 01:03:31;;;;;;;44.30;41.67;;;;;;;24.25;34.86;101776.53;5072027;28;20037;-70
2022/06/15 01:06:15;;;;;;;44.00;41.40;;;;;;;24.22;35.06;101776.31;5072094;28;20463;-71
2022/06/15 01:08:57;;;;;;;44.20;41.92;;;;;;;24.17;35.19;101778.06;5069490;28;20036;-71
2022/06/15 01:11:25;;;;;;;43.30;40.92;;;;;;;24.13;35.50;101777.03;5071879;28;20031;-71
2022/06/15 01:14:08;;;;;;;42.72;40.53;;;;;;;24.11;35.06;101770.19;5071849;28;20021;-70
2022/06/15 01:17:23;;;;;;;43.22;40.90;;;;;;;24.07;35.53;101775.53;5071074;28;20043;-70
2022/06/15 01:20:08;;;;;;;44.70;41.70;;;;;;;24.02;35.63;101769.31;5058764;28;20043;-71
2022/06/15 01:22:56;;;;;;;43.13;40.83;;;;;;;23.98;35.64;101775.44;5071472;28;20036;-69
2022/06/15 01:25:30;;;;;;;;;;;;;;;23.94;35.31;101766.16;5050685;28;20060;-70
2022/06/15 01:28:02;;;;;;;39.33;37.33;;;;;;;23.90;35.24;101772.59;5069022;28;19912;-70
2022/06/15 01:30:55;;;;;;;42.03;39.72;;;;;;;23.87;35.82;101767.69;5058536;28;20055;-70
2022/06/15 01:33:35;;;;;;;43.28;41.00;;;;;;;23.83;35.40;101763.91;5052085;28;20404;-71
2022/06/15 01:36:26;;;;;;;40.67;38.67;;;;;;;23.81;35.67;101768.91;5073723;28;20033;-70
2022/06/15 01:38:57;;;;;;;43.10;40.90;;;;;;;23.75;35.33;101766.25;5071358;28;20131;-71
2022/06/15 01:41:39;;;;;;;41.67;39.15;;;;;;;23.72;35.55;101764.13;5070400;28;20033;-71
2022/06/15 01:44:13;;;;;;;41.50;39.03;;;;;;;23.70;35.59;101765.50;5069190;28;20033;-71
2022/06/15 01:46:40;;;;;;;42.00;39.72;;;;;;;23.66;35.48;101762.56;5057487;28;20024;-71
2022/06/15 01:49:10;;;;;;;41.42;39.13;;;;;;;23.63;35.90;101763.16;5071710;28;20037;-71
2022/06/15 01:51:41;;;;;;;41.25;39.25;;;;;;;23.60;35.52;101758.25;5069599;28;20435;-70
2022/06/15 01:54:19;;;;;;;41.40;38.85;;;;;;;23.58;36.06;101760.50;5069921;28;20035;-70
2022/06/15 01:56:47;;;;;;;42.80;40.45;;;;;;;23.55;36.02;101761.94;5069163;28;20063;-70
2022/06/15 01:59:22;;;;;;;;;;;;;;;23.51;35.71;101758.16;5070475;28;20506;-71
2022/06/15 02:02:00;;;;;;;41.40;39.20;;;;;;;23.48;35.79;101755.19;5069065;28;19958;-70
2022/06/15 02:04:35;;;;;;;41.33;39.13;;;;;;;23.44;35.64;101756.94;5063458;28;20050;-72
2022/06/15 02:07:14;;;;;;;40.28;38.08;;;;;;;23.42;35.66;101756.41;5070419;28;20337;-71
2022/06/15 02:09:49;;;;;;;40.33;38.05;;;;;;;23.39;35.42;101749.56;5069525;28;20124;-70
2022/06/15 02:12:21;;;;;;;39.45;37.45;;;;;;;23.35;36.13;101745.78;5068511;28;20068;-71
2022/06/15 02:14:52;;;;;;;42.03;39.70;;;;;;;23.33;36.26;101739.75;5062929;28;20032;-70
2022/06/15 02:17:25;;;;;;;39.30;37.33;;;;;;;23.28;36.29;101735.19;5052085;28;20070;-70
2022/06/15 02:19:56;;;;;;;41.05;38.75;;;;;;;23.25;35.82;101738.53;5063611;28;20496;-70
2022/06/15 02:22:26;;;;;;;41.20;39.00;;;;;;;23.23;36.17;101735.25;5070775;28;20078;-72
2022/06/15 02:24:55;;;;;;;40.25;38.15;;;;;;;23.21;36.08;101731.16;5069421;28;20045;-70
2022/06/15 02:27:22;;;;;;;39.72;37.67;;;;;;;23.17;36.14;101730.97;5066353;28;20466;-71
2022/06/15 02:29:52;;;;;;;41.88;39.45;;;;;;;23.15;36.05;101735.16;5061861;28;20044;-70
2022/06/15 02:32:18;;;;;;;40.90;38.80;;;;;;;23.11;36.41;101735.75;5071343;28;20036;-71
2022/06/15 02:34:44;;;;;;;39.10;37.00;;;;;;;23.09;36.20;101737.19;5068574;28;20024;-70
2022/06/15 02:37:11;;;;;;;38.50;36.55;;;;;;;23.06;36.49;101733.09;5066244;28;20029;-71
2022/06/15 02:39:36;;;;;;;39.92;37.70;;;;;;;23.04;36.40;101734.53;5060975;28;20361;-71
2022/06/15 02:42:25;;;;;;;40.08;38.08;;;;;;;23.01;36.30;101726.88;5067860;28;20040;-71
2022/06/15 02:44:52;;;;;;;40.45;38.35;;;;;;;22.98;36.13;101730.19;5069065;28;20111;-71
2022/06/15 02:47:21;;;;;;;40.55;38.33;;;;;;;22.95;36.16;101733.53;5070831;28;20032;-70
2022/06/15 02:49:51;;;;;;;;;;;;;;;22.89;36.53;101725.38;5069537;28;20056;-71
2022/06/15 02:52:20;;;;;;;38.25;36.33;;;;;;;22.87;36.68;101724.84;5070401;28;19923;-71
2022/06/15 02:54:51;;;;;;;38.13;36.05;;;;;;;22.84;36.58;101725.44;5084658;28;20086;-70
2022/06/15 02:57:18;;;;;;;38.72;36.42;;;;;;;22.81;36.79;101726.06;5069648;28;20617;-72
2022/06/15 02:59:45;;;;;;;39.45;37.28;;;;;;;22.78;36.59;101723.91;5070448;28;20036;-70
2022/06/15 03:02:14;;;;;;;37.25;35.15;;;;;;;22.76;36.49;101728.91;5071025;28;20431;-70
2022/06/15 03:04:47;;;;;;;38.13;36.13;;;;;;;22.73;36.68;101726.75;5066590;28;20025;-71
2022/06/15 03:07:15;;;;;;;38.60;36.60;;;;;;;22.70;36.40;101716.31;5070001;28;20089;-71
2022/06/15 03:09:41;;;;;;;38.30;36.20;;;;;;;22.68;36.47;101715.81;5070828;28;20025;-71
2022/06/15 03:12:08;;;;;;;38.15;36.20;;;;;;;22.65;36.42;101717.25;5061855;28;20032;-70
2022/06/15 03:14:34;;;;;;;38.83;36.60;;;;;;;22.63;36.55;101721.41;5065456;28;20060;-71
2022/06/15 03:17:00;;;;;;;38.75;36.85;;;;;;;22.60;36.40;101724.75;5070425;28;20029;-70
2022/06/15 03:19:26;;;;;;;39.15;36.95;;;;;;;22.57;36.90;101725.34;5074093;28;20469;-71
2022/06/15 03:21:51;;;;;;;39.83;37.63;;;;;;;22.55;36.82;101722.88;5068354;28;20040;-70
2022/06/15 03:24:17;;;;;;;37.72;35.30;;;;;;;22.52;36.91;101722.69;5069718;28;20061;-71
2022/06/15 03:26:42;;;;;;;37.90;35.85;;;;;;;22.49;36.54;101717.78;5067141;28;20056;-71
2022/06/15 03:29:08;;;;;;;37.25;35.30;;;;;;;22.46;37.22;101732.97;5073855;28;20110;-70
2022/06/15 03:31:34;;;;;;;37.53;35.47;;;;;;;22.43;37.04;101722.56;5074586;28;20172;-71
2022/06/15 03:34:00;;;;;;;38.33;36.33;;;;;;;22.41;37.07;101733.03;5073806;28;20528;-71
2022/06/15 03:36:25;;;;;;;37.25;35.25;;;;;;;22.38;36.81;101736.41;5089593;28;20127;-70
2022/06/15 03:38:51;;;;;;;38.78;36.60;;;;;;;22.35;36.99;101732.31;5069828;28;20511;-71
2022/06/15 03:41:18;;;;;;;38.20;36.20;;;;;;;22.33;36.81;101740.03;5073876;28;20465;-70
2022/06/15 03:43:43;;;;;;;38.38;36.10;;;;;;;22.29;36.91;101741.75;5072947;28;20039;-69
2022/06/15 03:46:10;;;;;;;37.40;35.40;;;;;;;22.27;36.71;101741.22;5068901;28;20029;-69
2022/06/15 03:48:36;;;;;;;36.65;34.85;;;;;;;22.25;37.00;101737.94;5068197;28;20060;-69
2022/06/15 03:51:01;;;;;;;39.10;36.95;;;;;;;22.22;36.76;101736.59;5073190;28;20472;-69
2022/06/15 03:53:26;;;;;;;37.05;35.05;;;;;;;22.19;36.87;101730.84;5073954;28;20029;-70
2022/06/15 03:55:52;;;;;;;38.33;36.22;;;;;;;22.16;36.88;101735.03;5072015;28;20145;-69
2022/06/15 03:58:19;;;;;;;37.13;35.22;;;;;;;22.15;37.32;101732.56;5072623;28;20029;-70
2022/06/15 04:00:44;;;;;;;37.47;35.38;;;;;;;22.12;37.21;101730.41;5074093;28;20064;-70
2022/06/15 04:03:10;;;;;;;36.60;34.80;;;;;;;22.08;36.89;101732.94;5072846;28;20067;-70
2022/06/15 04:05:51;;;;;;;38.50;36.50;;;;;;;22.04;36.98;101724.44;5073220;28;20028;-69
2022/06/15 04:08:35;;;;;;;37.00;35.10;;;;;;;22.02;37.06;101734.94;5069464;28;20044;-69
2022/06/15 04:11:07;;;;;;;37.58;35.53;;;;;;;21.98;37.05;101722.06;5072499;28;20039;-69
2022/06/15 04:13:33;;;;;;;36.58;34.38;;;;;;;21.96;37.45;101733.38;5073272;28;20432;-70
2022/06/15 04:15:58;;;;;;;36.72;34.72;;;;;;;21.94;37.27;101732.84;5073041;28;20431;-69
2022/06/15 04:18:24;;;;;;;36.63;34.83;;;;;;;21.91;37.56;101727.13;5071181;28;20514;-69
2022/06/15 04:20:50;;;;;;;37.80;35.65;;;;;;;21.89;37.29;101732.09;5072625;28;20380;-69
2022/06/15 04:23:18;;;;;;;37.08;35.03;;;;;;;21.87;37.29;101726.06;5073355;28;20063;-71
2022/06/15 04:25:53;;;;;;;35.40;33.45;;;;;;;21.83;37.18;101723.91;5065154;28;20045;-70
2022/06/15 04:28:21;;;;;;;36.88;34.45;;;;;;;21.81;37.34;101728.06;5056460;28;20057;-70
2022/06/15 04:30:47;;;;;;;36.45;34.22;;;;;;;21.78;37.46;101736.91;5072391;28;20024;-70
2022/06/15 04:33:13;;;;;;;35.80;33.95;;;;;;;21.76;37.38;101736.38;5072215;28;20038;-70
2022/06/15 04:35:39;;;;;;;35.97;33.88;;;;;;;21.73;37.17;101734.22;5072530;28;20044;-70
2022/06/15 04:38:06;;;;;;;37.75;35.85;;;;;;;21.71;37.65;101736.44;5064927;28;20033;-69
2022/06/15 04:40:33;;;;;;;36.55;34.35;;;;;;;21.70;37.53;101732.06;5064104;28;20035;-69
2022/06/15 04:42:59;;;;;;;36.65;34.50;;;;;;;21.67;37.87;101730.72;5066183;28;20060;-70
2022/06/15 04:45:25;;;;;;;37.17;35.10;;;;;;;21.64;37.79;101736.78;5072591;28;20067;-69
2022/06/15 04:47:50;;;;;;;36.10;33.90;;;;;;;21.62;37.31;101736.28;5061486;28;20114;-69
2022/06/15 04:50:15;;;;;;;35.50;33.72;;;;;;;21.60;37.69;101739.31;5068125;28;20040;-70
2022/06/15 04:52:42;;;;;;;35.35;33.38;;;;;;;21.58;37.71;101736.03;5061591;28;20544;-69
2022/06/15 04:55:11;;;;;;;36.60;34.70;;;;;;;21.55;37.96;101733.06;5069542;28;20123;-69
2022/06/15 04:57:36;;;;;;;33.50;31.77;;;;;;;21.54;37.74;101731.41;5072663;28;20103;-70
2022/06/15 05:00:05;;;;;;;37.30;35.05;;;;;;;21.52;37.62;101728.97;5070390;28;20479;-70
2022/06/15 05:02:31;;;;;;;35.85;33.85;;;;;;;21.51;37.91;101737.50;5072424;28;20103;-70
2022/06/15 05:04:59;;;;;;;36.38;34.22;;;;;;;21.49;37.76;101740.53;5070328;28;20524;-69
2022/06/15 05:07:24;;;;;;;34.58;32.80;;;;;;;21.46;37.92;101737.56;5071872;28;20033;-68
2022/06/15 05:09:51;;;;;;;36.72;34.33;;;;;;;21.45;37.61;101738.69;5066910;28;20385;-68
2022/06/15 05:12:17;;;;;;;34.80;32.80;;;;;;;21.43;38.23;101741.72;5054289;28;20033;-69
2022/06/15 05:14:46;;;;;;;36.33;34.22;;;;;;;21.43;38.11;101740.91;5072066;28;20507;-69
2022/06/15 05:17:11;;;;;;;36.67;34.17;;;;;;;21.40;38.17;101742.31;5071673;28;20468;-68
2022/06/15 05:19:37;;;;;;;35.20;33.30;;;;;;;21.40;38.04;101747.78;5067616;28;20033;-68
2022/06/15 05:22:03;;;;;;;35.13;33.20;;;;;;;21.38;37.97;101737.09;5067549;28;20477;-68
2022/06/15 05:24:28;;;;;;;35.63;33.60;;;;;;;21.39;38.10;101735.16;5071672;28;20040;-69
2022/06/15 05:26:54;;;;;;;35.30;33.45;;;;;;;21.38;37.97;101741.75;5071691;28;20048;-69
2022/06/15 05:29:19;;;;;;;35.15;33.35;;;;;;;21.38;37.94;101739.00;5067901;28;20392;-70
2022/06/15 05:31:44;;;;;;;33.72;31.92;;;;;;;21.38;38.17;101748.06;5057003;28;20121;-68
2022/06/15 05:34:10;;;;;;;38.10;36.03;;;;;;;21.38;38.19;101742.59;5071130;28;20032;-70
2022/06/15 05:36:36;;;;;;;35.45;33.60;;;;;;;21.38;38.47;101741.75;5071641;28;20028;-69
2022/06/15 05:39:03;;;;;;;36.40;34.30;;;;;;;21.35;38.70;101737.66;5071308;28;20028;-69
2022/06/15 05:41:29;;;;;;;35.15;32.97;;;;;;;21.35;38.53;101745.06;5070095;28;20032;-69
2022/06/15 05:46:34;;;;;;;35.22;33.33;;;;;;;21.36;38.38;101747.50;5065653;28;20098;-69
2022/06/15 05:49:01;;;;;;;35.88;33.58;;;;;;;21.35;38.68;101747.81;5059568;28;20446;-68
2022/06/15 05:51:27;;;;;;;36.95;34.78;;;;;;;21.34;38.69;101748.91;5067903;28;20033;-69
2022/06/15 05:53:53;;;;;;;34.80;33.00;;;;;;;21.35;38.67;101756.88;5059985;28;20093;-69
2022/06/15 05:56:19;;;;;;;34.70;32.90;;;;;;;21.36;38.63;101752.19;5070881;28;20514;-69
2022/06/15 05:58:45;;;;;;;34.63;32.83;;;;;;;21.40;38.74;101756.03;5071605;28;20042;-69
2022/06/15 06:01:17;;;;;;;36.03;34.05;;;;;;;21.43;38.98;101749.16;5069620;28;20036;-69
2022/06/15 06:03:42;;;;;;;35.03;32.85;;;;;;;21.46;38.72;101754.06;5069932;28;20036;-69
2022/06/15 06:06:10;;;;;;;35.67;33.78;;;;;;;21.48;38.71;101747.16;5070906;28;20033;-68
2022/06/15 06:08:35;;;;;;;37.80;35.47;;;;;;;21.51;38.69;101743.81;5071712;28;20031;-69
2022/06/15 06:11:01;;;;;;;36.20;34.22;;;;;;;21.51;38.92;101743.81;5064548;28;20029;-69
2022/06/15 06:13:27;;;;;;;36.10;34.15;;;;;;;21.50;39.12;101742.19;5064131;28;20082;-69
2022/06/15 06:15:54;;;;;;;34.67;32.63;;;;;;;21.50;39.23;101742.19;5071203;28;20029;-69
2022/06/15 06:18:19;;;;;;;35.58;33.47;;;;;;;21.50;39.03;101736.69;5069604;28;20032;-69
2022/06/15 06:20:44;;;;;;;37.00;34.55;;;;;;;21.50;39.04;101744.94;5070867;28;20366;-68
2022/06/15 06:23:10;;;;;;;35.55;33.13;;;;;;;21.52;39.50;101737.22;5061971;28;20048;-69
2022/06/15 06:25:35;;;;;;;35.67;33.60;;;;;;;21.55;38.86;101738.56;5066371;28;20053;-69
2022/06/15 06:28:00;;;;;;;36.50;34.40;;;;;;;21.59;39.10;101745.09;5055053;28;20116;-69
2022/06/15 06:30:26;;;;;;;36.22;34.33;;;;;;;21.64;38.99;101749.72;5071337;28;20108;-69
2022/06/15 06:32:51;;;;;;;37.25;34.63;;;;;;;21.68;39.14;101753.53;5066383;28;20069;-67
2022/06/15 06:35:17;;;;;;;36.38;34.40;;;;;;;21.71;38.97;101751.00;5063414;28;20071;-68
2022/06/15 06:37:44;;;;;;;36.67;34.67;;;;;;;21.75;38.88;101749.31;5070834;28;20372;-68
2022/06/15 06:40:13;;;;;;;38.25;35.92;;;;;;;21.79;38.99;101750.34;5070097;28;20442;-68
2022/06/15 06:42:38;;;;;;;38.35;35.53;;;;;;;21.80;39.69;101751.19;5070815;28;20032;-70
2022/06/15 06:45:04;;;;;;;37.67;35.47;;;;;;;21.80;39.34;101753.94;5056247;28;20033;-68
2022/06/15 06:47:30;;;;;;;36.45;34.25;;;;;;;21.79;39.44;101752.28;5070569;28;20032;-70
2022/06/15 06:49:55;;;;;;;34.83;32.92;;;;;;;21.78;39.47;101762.47;5087154;28;20051;-70
2022/06/15 06:52:21;;;;;;;36.78;34.60;;;;;;;21.78;39.79;101756.97;5071447;28;20511;-68
2022/06/15 06:54:46;;;;;;;37.25;34.92;;;;;;;21.83;39.75;101758.84;5071473;28;20028;-70
2022/06/15 06:57:11;;;;;;;37.60;35.42;;;;;;;21.86;39.99;101754.69;5074016;28;20431;-70
2022/06/15 06:59:37;;;;;;;38.40;35.50;;;;;;;21.90;40.40;101763.97;5074805;28;20037;-71
2022/06/15 07:02:02;;;;;;;34.70;32.90;;;;;;;21.91;40.37;101755.44;5070174;28;20037;-69
2022/06/15 07:04:29;;;;;;;35.90;33.97;;;;;;;21.93;39.90;101764.22;5068750;28;20071;-69
2022/06/15 07:06:57;;;;;;;34.95;33.15;;;;;;;21.97;40.01;101757.03;5074850;28;20028;-70
2022/06/15 07:09:22;;;;;;;36.95;34.75;;;;;;;22.04;39.95;101751.16;5072811;28;20241;-70
2022/06/15 07:11:47;;;;;;;37.20;35.03;;;;;;;22.10;40.18;101755.47;5064801;28;20373;-70
2022/06/15 07:14:14;;;;;;;38.65;36.35;;;;;;;22.18;40.20;101765.81;5072935;28;20387;-70
2022/06/15 07:16:41;;;;;;;37.30;35.13;;;;;;;22.22;39.87;101768.81;5074755;28;20033;-70
2022/06/15 07:19:06;;;;;;;36.67;34.83;;;;;;;22.24;39.92;101766.59;5073746;28;20025;-68
2022/06/15 07:21:32;;;;;;;38.72;36.22;;;;;;;22.25;40.33;101766.31;5064825;28;20036;-70
2022/06/15 07:23:57;;;;;;;37.42;35.25;;;;;;;22.28;40.45;101766.84;5072859;28;20060;-68
2022/06/15 07:26:27;;;;;;;39.30;37.10;;;;;;;22.32;40.18;101770.59;5062755;28;20147;-70
2022/06/15 07:28:53;;;;;;;40.30;37.50;;;;;;;22.38;40.15;101772.19;5062970;28;20429;-69
2022/06/15 07:31:28;;;;;;;39.17;36.75;;;;;;;22.42;39.96;101762.19;5072834;28;20570;-68
2022/06/15 07:33:54;;;;;;;37.13;35.22;;;;;;;22.45;40.28;101770.69;5070267;28;20033;-71
2022/06/15 07:36:23;;;;;;;39.20;36.92;;;;;;;22.52;40.11;101769.50;5056717;28;20079;-69
2022/06/15 07:38:50;;;;;;;36.75;34.85;;;;;;;22.57;40.48;101778.50;5072360;28;20039;-69
2022/06/15 07:41:15;;;;;;;38.95;36.75;;;;;;;22.63;40.24;101774.56;5063462;28;20044;-69
2022/06/15 07:43:41;;;;;;;40.00;38.00;;;;;;;22.70;40.11;101776.91;5067847;28;20110;-69
2022/06/15 07:46:07;;;;;;;39.42;37.30;;;;;;;22.77;40.26;101779.28;5072010;28;20043;-69
2022/06/15 07:52:03;;;;;;;41.25;38.53;;;;;;;22.94;39.88;101781.50;5065148;28;20048;-68
2022/06/15 07:54:29;;;;;;;39.53;37.30;;;;;;;23.00;39.82;101770.09;5067236;28;20385;-69
2022/06/15 07:56:56;;;;;;;40.50;38.30;;;;;;;23.05;39.04;101775.53;5063713;28;20028;-69
2022/06/15 07:59:22;;;;;;;40.75;38.45;;;;;;;23.10;39.63;101766.38;5088545;28;20501;-68
2022/06/15 08:01:49;;;;;;;39.00;37.00;;;;;;;23.16;39.32;101780.88;5073717;28;20461;-69
2022/06/15 08:04:15;;;;;;;41.53;39.20;;;;;;;23.21;38.66;101776.09;5088900;28;20547;-70
2022/06/15 08:06:43;;;;;;;41.88;38.95;;;;;;;23.25;38.33;101774.34;5072261;28;20037;-69
2022/06/15 08:09:10;;;;;;;40.88;38.75;;;;;;;23.32;38.43;101777.53;5072756;28;20033;-68
2022/06/15 08:11:37;;;;;;;43.10;40.65;;;;;;;23.36;38.36;101775.00;5064860;28;20037;-69
2022/06/15 08:14:03;;;;;;;38.80;36.13;;;;;;;23.43;38.25;101778.16;5072842;28;20131;-69
2022/06/15 08:16:29;;;;;;;39.13;36.55;;;;;;;23.49;38.17;101781.66;5071315;28;20413;-69
2022/06/15 08:18:59;;;;;;;40.30;37.95;;;;;;;23.55;38.61;101775.72;5073196;28;20068;-69
2022/06/15 08:21:29;;;;;;;40.90;38.70;;;;;;;23.62;38.18;101772.56;5072987;28;20509;-69
2022/06/15 08:23:57;;;;;;;41.65;39.35;;;;;;;23.69;38.58;101772.16;5065686;28;20525;-70
2022/06/15 08:26:29;;;;;;;43.20;40.20;;;;;;;23.78;37.67;101775.03;5073077;28;20052;-70
2022/06/15 08:28:58;;;;;;;40.28;38.08;;;;;;;23.85;38.60;101773.50;5073468;28;20039;-71
2022/06/15 08:31:24;;;;;;;40.80;38.72;;;;;;;23.95;39.00;101772.47;5072893;28;20461;-70
2022/06/15 08:33:50;;;;;;;40.97;38.58;;;;;;;24.03;38.99;101766.22;5070207;28;20042;-70
2022/06/15 08:36:15;;;;;;;42.30;39.42;;;;;;;24.13;38.79;101767.97;5063540;28;20392;-69
2022/06/15 08:38:41;;;;;;;42.33;39.88;;;;;;;24.24;38.83;101763.00;5072024;28;20459;-69
2022/06/15 08:41:18;;;;;;;41.83;39.45;;;;;;;24.34;39.04;101757.25;5072988;28;20036;-70
2022/06/15 08:44:05;;;;;;;41.25;39.20;;;;;;;24.45;38.43;101753.19;5069480;28;20039;-69
2022/06/15 08:46:43;;;;;;;41.03;38.83;;;;;;;24.55;38.57;101752.13;5062403;28;20028;-69
2022/06/15 08:49:15;;;;;;;45.05;42.58;;;;;;;24.64;38.76;101758.50;5061334;28;20028;-71
2022/06/15 08:51:44;;;;;;;43.50;41.20;;;;;;;24.75;38.54;101753.56;5056734;28;20025;-72
2022/06/15 08:54:22;;;;;;;43.72;41.38;;;;;;;24.86;38.96;101759.66;5061887;28;20040;-69
2022/06/15 08:57:24;;;;;;;44.63;42.15;;;;;;;24.97;38.69;101755.47;5058739;28;20086;-71
2022/06/15 09:00:04;;;;;;;46.58;43.78;;;;;;;25.07;38.14;101757.97;5059227;28;20032;-69
2022/06/15 09:02:54;;;;;;;45.22;42.33;;;;;;;25.17;36.28;101762.47;5061329;28;20041;-69
2022/06/15 09:05:46;;;;;;;47.05;43.83;;;;;;;25.27;37.04;101756.66;5050287;28;20120;-68
2022/06/15 09:08:14;;;;;;;45.08;42.67;;;;;;;25.35;37.65;101757.81;5061376;28;20542;-69
2022/06/15 09:10:53;;;;;;;45.53;43.22;;;;;;;25.44;38.17;101762.28;5069429;28;20484;-69
2022/06/15 09:13:35;;;;;;;47.10;44.50;;;;;;;25.55;37.94;101760.06;5061501;28;20487;-69
2022/06/15 09:16:24;;;;;;;48.55;45.75;;;;;;;25.65;35.74;101765.31;5057270;28;20078;-69
2022/06/15 09:19:02;;;;;;;46.90;44.20;;;;;;;25.75;36.11;101760.59;5057645;28;20033;-69
2022/06/15 09:21:44;;;;;;;49.08;46.58;;;;;;;25.82;36.93;101770.03;5055578;28;20488;-69
2022/06/15 09:24:16;;;;;;;50.30;47.38;;;;;;;25.92;37.11;101762.63;5059731;28;20228;-69
2022/06/15 09:27:00;;;;;;;48.33;45.38;;;;;;;26.02;36.81;101760.34;5062679;28;20048;-69
2022/06/15 09:29:34;;;;;;;50.25;47.45;;;;;;;26.12;36.29;101757.28;5056728;28;20040;-70
2022/06/15 09:32:17;;;;;;;48.97;46.28;;;;;;;26.23;37.60;101765.25;5058208;28;20036;-70
2022/06/15 09:34:51;;;;;;;53.58;50.50;;;;;;;26.33;36.11;101767.72;5052074;28;20433;-69
2022/06/15 09:37:20;;;;;;;52.78;49.88;;;;;;;26.43;35.22;101758.28;5059039;28;20029;-69
2022/06/15 09:39:46;;;;;;;50.40;47.90;;;;;;;26.51;35.98;101755.53;5058510;28;20028;-70
2022/06/15 09:42:19;;;;;;;52.15;49.35;;;;;;;26.61;36.09;101751.63;5061017;28;20558;-69
2022/06/15 09:45:01;;;;;;;52.70;49.40;;;;;;;26.70;35.87;101755.19;5052886;28;20111;-70
2022/06/15 09:47:32;;;;;;;55.50;52.20;;;;;;;26.81;34.49;101752.88;5059645;28;20032;-69
2022/06/15 09:50:18;;;;;;;52.47;49.72;;;;;;;26.92;34.60;101756.97;5066796;28;20055;-70
2022/06/15 09:52:57;;;;;;;51.88;48.97;;;;;;;27.00;35.76;101749.75;5065951;28;20456;-70
2022/06/15 09:55:38;;;;;;;53.20;50.17;;;;;;;27.11;34.91;101756.56;5061461;28;20453;-72
2022/06/15 09:58:07;;;;;;;54.28;51.10;;;;;;;27.22;33.73;101750.72;5063975;28;20040;-69
2022/06/15 10:00:36;;;;;;;52.55;49.97;;;;;;;27.29;34.89;101762.94;5067270;28;20085;-69
2022/06/15 10:03:06;;;;;;;54.22;50.67;;;;;;;27.36;35.02;101752.09;5066176;28;20033;-69
2022/06/15 10:05:39;;;;;;;58.28;54.80;;;;;;;27.48;32.97;101759.75;5061126;28;20025;-68
2022/06/15 10:08:10;;;;;;;53.55;50.95;;;;;;;27.55;34.57;101757.25;5066957;28;20035;-69
2022/06/15 10:10:43;;;;;;;57.97;54.97;;;;;;;27.65;35.33;101755.25;5053455;28;20032;-69
2022/06/15 10:13:15;;;;;;;55.78;52.70;;;;;;;27.75;33.87;101752.09;5061209;28;20036;-68
2022/06/15 10:15:40;;;;;;;56.58;53.67;;;;;;;27.85;33.71;101753.72;5061082;28;20032;-69
2022/06/15 10:18:21;;;;;;;58.22;54.55;;;;;;;27.94;32.89;101758.03;5060396;28;20362;-69
2022/06/15 10:21:14;;;;;;;57.47;54.55;;;;;;;28.02;34.81;101750.81;5060300;28;20024;-70
2022/06/15 10:24:00;;;;;;;59.13;56.08;;;;;;;28.13;35.38;101748.47;5055386;28;20021;-70
2022/06/15 10:26:38;;;;;;;58.55;55.55;;;;;;;28.21;35.19;101750.34;5068417;28;20055;-69
2022/06/15 10:29:15;;;;;;;59.10;56.00;;;;;;;28.31;34.73;101747.16;5052918;28;20041;-70
2022/06/15 10:31:43;;;;;;;57.93;54.90;;;;;;;28.40;33.00;101741.53;5052207;28;20040;-70
2022/06/15 10:34:41;;;;;;;61.20;58.00;;;;;;;28.50;34.25;101745.88;5063535;28;20047;-68
2022/06/15 10:37:17;;;;;;;59.38;56.25;;;;;;;28.59;34.10;101741.88;5065943;28;20025;-70
2022/06/15 10:39:48;;;;;;;59.17;56.38;;;;;;;28.67;34.62;101738.19;5057043;28;20028;-69
2022/06/15 10:42:24;;;;;;;64.43;60.83;;;;;;;28.77;33.83;101736.94;5063458;28;20384;-71
2022/06/15 10:45:03;;;;;;;63.15;60.05;;;;;;;28.86;33.84;101736.88;5054816;28;20036;-70
2022/06/15 10:47:40;;;;;;;62.42;58.78;;;;;;;28.93;33.15;101737.13;5059349;28;20055;-70
2022/06/15 10:50:17;;;;;;;61.22;57.65;;;;;;;29.02;33.01;101729.47;5065125;28;20106;-71
2022/06/15 10:52:50;;;;;;;60.92;58.08;;;;;;;29.11;33.11;101735.00;5068420;28;20067;-70
2022/06/15 11:04:29;;;;;;;63.22;59.47;;;;;;;29.48;34.24;101735.00;5057756;28;20121;-70
2022/06/15 11:07:03;;;;;;;60.15;57.13;;;;;;;29.57;33.32;101735.72;5061257;28;20480;-70
2022/06/15 11:09:41;;;;;;;65.15;61.03;;;;;;;29.64;31.57;101727.59;5061610;28;20040;-70
2022/06/15 11:12:22;;;;;;;60.38;57.08;;;;;;;29.73;32.93;101725.50;5058914;28;20048;-70
2022/06/15 11:14:59;;;;;;;64.82;61.63;;;;;;;29.81;33.01;101726.56;5056495;28;20283;-70
2022/06/15 11:20:33;;;;;;;64.32;61.10;;;;;;;29.97;33.33;101735.00;5062917;28;20122;-70
2022/06/15 11:23:25;;;;;;;65.97;62.58;;;;;;;30.07;33.19;101726.16;5059245;28;20468;-70
2022/06/15 11:29:21;;;;;;;66.32;63.10;;;;;;;30.25;32.43;101714.75;5050852;28;20039;-70
2022/06/15 11:31:47;;;;;;;68.20;64.53;;;;;;;30.31;32.82;101727.25;5053901;28;20493;-70
2022/06/15 11:34:20;;;;;;;62.42;59.28;;;;;;;30.39;32.43;101720.72;5058054;28;20025;-70
2022/06/15 11:37:14;;;;;;;66.07;62.70;;;;;;;30.47;32.76;101721.75;5050904;28;20221;-70
2022/06/15 11:39:46;;;;;;;70.13;66.72;;;;;;;30.55;33.31;101718.00;5047001;28;20040;-70
2022/06/15 11:42:15;;;;;;;70.45;66.63;;;;;;;30.61;32.88;101709.00;5060201;28;20028;-71
2022/06/15 11:44:43;;;;;;;71.70;68.10;;;;;;;30.68;32.06;101713.16;5060293;28;20036;-70
2022/06/15 11:47:30;;;;;;;68.85;65.60;;;;;;;30.78;31.61;101713.44;5057336;28;20041;-70